sensor_id;sensor_type;location;lat;lon;timestamp;temperature;humidity
74458;SHT31;62896;51.032;3.712;2023-02-15T00:02:17;4.7;90
74458;SHT31;62896;51.032;3.712;2023-02-15T00:05:37;4.7;90
74458;SHT31;62896;51.032;3.712;2023-02-15T00:08:57;4.7;90
74458;SHT31;62896;51.032;3.712;2023-02-15T00:12:17;4.7;90
74458;SHT31;62896;51.032;3.712;2023-02-15T00:15:37;4.7;90
74458;SHT31;62896;51.032;3.712;2023-02-15T00:18:57;4.7;90
74458;SHT31;62896;51.032;3.712;2023-02-15T00:22:17;4.6;90
74458;SHT31;62896;51.032;3.712;2023-02-15T00:25:37;4.6;90
74458;SHT31;62896;51.032;3.712;2023-02-15T00:28:57;4.6;90
74458;SHT31;62896;51.032;3.712;2023-02-15T00:32:17;4.4;90
74458;SHT31;62896;51.032;3.712;2023-02-15T00:35:37;4.4;90
74458;SHT31;62896;51.032;3.712;2023-02-15T00:38:57;4.4;90
74458;SHT31;62896;51.032;3.712;2023-02-15T00:42:17;4.3;90
74458;SHT31;62896;51.032;3.712;2023-02-15T00:45:37;4.3;90
74458;SHT31;62896;51.032;3.712;2023-02-15T00:48:57;4.3;90
74458;SHT31;62896;51.032;3.712;2023-02-15T00:52:17;4.2;90
74458;SHT31;62896;51.032;3.712;2023-02-15T00:55:37;4.2;90
74458;SHT31;62896;51.032;3.712;2023-02-15T00:58:57;4.2;90
74458;SHT31;62896;51.032;3.712;2023-02-15T01:02:17;4;90
74458;SHT31;62896;51.032;3.712;2023-02-15T01:05:37;4;90
74458;SHT31;62896;51.032;3.712;2023-02-15T01:08:57;4;90
74458;SHT31;62896;51.032;3.712;2023-02-15T01:12:17;4;91
74458;SHT31;62896;51.032;3.712;2023-02-15T01:15:37;4;91
74458;SHT31;62896;51.032;3.712;2023-02-15T01:18:57;4;91
74458;SHT31;62896;51.032;3.712;2023-02-15T01:22:17;4;90
74458;SHT31;62896;51.032;3.712;2023-02-15T01:25:37;4;90
74458;SHT31;62896;51.032;3.712;2023-02-15T01:28:57;4;90
74458;SHT31;62896;51.032;3.712;2023-02-15T01:32:17;3.8;91
74458;SHT31;62896;51.032;3.712;2023-02-15T01:35:37;3.8;91
74458;SHT31;62896;51.032;3.712;2023-02-15T01:38:57;3.8;91
74458;SHT31;62896;51.032;3.712;2023-02-15T01:42:20;3.8;91
74458;SHT31;62896;51.032;3.712;2023-02-15T01:45:38;3.8;91
74458;SHT31;62896;51.032;3.712;2023-02-15T01:49:00;3.8;91
74458;SHT31;62896;51.032;3.712;2023-02-15T01:52:17;3.7;91
74458;SHT31;62896;51.032;3.712;2023-02-15T01:55:38;3.7;91
74458;SHT31;62896;51.032;3.712;2023-02-15T01:58:58;3.7;91
74458;SHT31;62896;51.032;3.712;2023-02-15T02:02:17;3.7;91
74458;SHT31;62896;51.032;3.712;2023-02-15T02:05:37;3.7;91
74458;SHT31;62896;51.032;3.712;2023-02-15T02:08:57;3.7;91
74458;SHT31;62896;51.032;3.712;2023-02-15T02:12:17;3.7;91
74458;SHT31;62896;51.032;3.712;2023-02-15T02:15:39;3.7;91
74458;SHT31;62896;51.032;3.712;2023-02-15T02:19:00;3.7;91
74458;SHT31;62896;51.032;3.712;2023-02-15T02:22:33;3.7;91
74458;SHT31;62896;51.032;3.712;2023-02-15T02:25:43;3.7;91
74458;SHT31;62896;51.032;3.712;2023-02-15T02:33:25;3.5;91
74458;SHT31;62896;51.032;3.712;2023-02-15T02:35:38;3.5;91
74458;SHT31;62896;51.032;3.712;2023-02-15T02:39:00;3.5;91
74458;SHT31;62896;51.032;3.712;2023-02-15T02:42:17;3.5;92
74458;SHT31;62896;51.032;3.712;2023-02-15T02:45:39;3.5;92
74458;SHT31;62896;51.032;3.712;2023-02-15T02:48:57;3.5;92
74458;SHT31;62896;51.032;3.712;2023-02-15T02:52:49;3.6;92
74458;SHT31;62896;51.032;3.712;2023-02-15T02:55:38;3.6;92
74458;SHT31;62896;51.032;3.712;2023-02-15T02:58:58;3.6;92
74458;SHT31;62896;51.032;3.712;2023-02-15T03:02:18;3.5;92
74458;SHT31;62896;51.032;3.712;2023-02-15T03:05:37;3.5;92
74458;SHT31;62896;51.032;3.712;2023-02-15T03:08:58;3.5;92
74458;SHT31;62896;51.032;3.712;2023-02-15T03:12:17;3.5;93
74458;SHT31;62896;51.032;3.712;2023-02-15T03:15:38;3.5;93
74458;SHT31;62896;51.032;3.712;2023-02-15T03:18:58;3.5;93
74458;SHT31;62896;51.032;3.712;2023-02-15T03:22:18;3.5;93
74458;SHT31;62896;51.032;3.712;2023-02-15T03:25:37;3.5;93
74458;SHT31;62896;51.032;3.712;2023-02-15T03:28:57;3.5;93
74458;SHT31;62896;51.032;3.712;2023-02-15T03:32:17;3.5;93
74458;SHT31;62896;51.032;3.712;2023-02-15T03:35:39;3.5;93
74458;SHT31;62896;51.032;3.712;2023-02-15T03:38:58;3.5;93
74458;SHT31;62896;51.032;3.712;2023-02-15T03:42:17;3.4;93
74458;SHT31;62896;51.032;3.712;2023-02-15T03:45:37;3.4;93
74458;SHT31;62896;51.032;3.712;2023-02-15T03:48:57;3.4;93
74458;SHT31;62896;51.032;3.712;2023-02-15T03:52:17;3.3;93
74458;SHT31;62896;51.032;3.712;2023-02-15T03:55:37;3.3;93
74458;SHT31;62896;51.032;3.712;2023-02-15T03:58:57;3.3;93
74458;SHT31;62896;51.032;3.712;2023-02-15T04:02:19;3.2;92
74458;SHT31;62896;51.032;3.712;2023-02-15T04:05:37;3.2;92
74458;SHT31;62896;51.032;3.712;2023-02-15T04:08:57;3.2;92
74458;SHT31;62896;51.032;3.712;2023-02-15T04:12:17;3.1;93
74458;SHT31;62896;51.032;3.712;2023-02-15T04:15:37;3.1;93
74458;SHT31;62896;51.032;3.712;2023-02-15T04:18:57;3.1;93
74458;SHT31;62896;51.032;3.712;2023-02-15T04:22:17;3.2;93
74458;SHT31;62896;51.032;3.712;2023-02-15T04:25:37;3.2;93
74458;SHT31;62896;51.032;3.712;2023-02-15T04:28:57;3.2;93
74458;SHT31;62896;51.032;3.712;2023-02-15T04:32:17;3.2;92
74458;SHT31;62896;51.032;3.712;2023-02-15T04:35:37;3.2;92
74458;SHT31;62896;51.032;3.712;2023-02-15T04:38:57;3.2;92
74458;SHT31;62896;51.032;3.712;2023-02-15T04:42:17;3.2;92
74458;SHT31;62896;51.032;3.712;2023-02-15T04:45:37;3.2;92
74458;SHT31;62896;51.032;3.712;2023-02-15T04:48:57;3.2;92
74458;SHT31;62896;51.032;3.712;2023-02-15T04:52:17;3.2;92
74458;SHT31;62896;51.032;3.712;2023-02-15T04:55:37;3.2;92
74458;SHT31;62896;51.032;3.712;2023-02-15T04:58:57;3.2;92
74458;SHT31;62896;51.032;3.712;2023-02-15T05:02:17;3.1;92
74458;SHT31;62896;51.032;3.712;2023-02-15T05:05:37;3.1;92
74458;SHT31;62896;51.032;3.712;2023-02-15T05:08:57;3.1;92
74458;SHT31;62896;51.032;3.712;2023-02-15T05:12:17;3;92
74458;SHT31;62896;51.032;3.712;2023-02-15T05:15:37;3;92
74458;SHT31;62896;51.032;3.712;2023-02-15T05:18:57;3;92
74458;SHT31;62896;51.032;3.712;2023-02-15T05:22:17;3;91
74458;SHT31;62896;51.032;3.712;2023-02-15T05:25:37;3;91
74458;SHT31;62896;51.032;3.712;2023-02-15T05:28:57;3;91
74458;SHT31;62896;51.032;3.712;2023-02-15T05:32:17;3;91
74458;SHT31;62896;51.032;3.712;2023-02-15T05:35:37;3;91
74458;SHT31;62896;51.032;3.712;2023-02-15T05:38:57;3;91
74458;SHT31;62896;51.032;3.712;2023-02-15T05:42:17;2.9;92
74458;SHT31;62896;51.032;3.712;2023-02-15T05:45:37;2.9;92
74458;SHT31;62896;51.032;3.712;2023-02-15T05:48:57;2.9;92
74458;SHT31;62896;51.032;3.712;2023-02-15T05:52:17;2.9;92
74458;SHT31;62896;51.032;3.712;2023-02-15T05:55:37;2.9;92
74458;SHT31;62896;51.032;3.712;2023-02-15T05:58:57;2.9;92
74458;SHT31;62896;51.032;3.712;2023-02-15T06:02:17;3;92
74458;SHT31;62896;51.032;3.712;2023-02-15T06:05:37;3;92
74458;SHT31;62896;51.032;3.712;2023-02-15T06:08:57;3;92
74458;SHT31;62896;51.032;3.712;2023-02-15T06:12:17;3.1;92
74458;SHT31;62896;51.032;3.712;2023-02-15T06:15:37;3.1;92
74458;SHT31;62896;51.032;3.712;2023-02-15T06:18:57;3.1;92
74458;SHT31;62896;51.032;3.712;2023-02-15T06:22:17;3.3;91
74458;SHT31;62896;51.032;3.712;2023-02-15T06:25:37;3.3;91
74458;SHT31;62896;51.032;3.712;2023-02-15T06:28:57;3.3;91
74458;SHT31;62896;51.032;3.712;2023-02-15T06:32:17;3.2;90
74458;SHT31;62896;51.032;3.712;2023-02-15T06:35:37;3.2;90
74458;SHT31;62896;51.032;3.712;2023-02-15T06:38:57;3.2;90
74458;SHT31;62896;51.032;3.712;2023-02-15T06:42:17;3.2;91
74458;SHT31;62896;51.032;3.712;2023-02-15T06:45:37;3.2;91
74458;SHT31;62896;51.032;3.712;2023-02-15T06:48:57;3.2;91
74458;SHT31;62896;51.032;3.712;2023-02-15T06:52:17;3.3;91
74458;SHT31;62896;51.032;3.712;2023-02-15T06:55:37;3.3;91
74458;SHT31;62896;51.032;3.712;2023-02-15T06:58:57;3.3;91
74458;SHT31;62896;51.032;3.712;2023-02-15T07:02:17;3.4;91
74458;SHT31;62896;51.032;3.712;2023-02-15T07:05:37;3.4;91
74458;SHT31;62896;51.032;3.712;2023-02-15T07:08:57;3.4;91
74458;SHT31;62896;51.032;3.712;2023-02-15T07:12:17;3.8;91
74458;SHT31;62896;51.032;3.712;2023-02-15T07:15:37;3.8;91
74458;SHT31;62896;51.032;3.712;2023-02-15T07:18:57;3.8;91
74458;SHT31;62896;51.032;3.712;2023-02-15T07:22:17;3.8;88
74458;SHT31;62896;51.032;3.712;2023-02-15T07:25:37;3.8;88
74458;SHT31;62896;51.032;3.712;2023-02-15T07:28:57;3.8;88
74458;SHT31;62896;51.032;3.712;2023-02-15T07:32:17;3.8;89
74458;SHT31;62896;51.032;3.712;2023-02-15T07:35:37;3.8;89
74458;SHT31;62896;51.032;3.712;2023-02-15T07:38:57;3.8;89
74458;SHT31;62896;51.032;3.712;2023-02-15T07:42:17;4.1;89
74458;SHT31;62896;51.032;3.712;2023-02-15T07:45:37;4.1;89
74458;SHT31;62896;51.032;3.712;2023-02-15T07:48:57;4.1;89
74458;SHT31;62896;51.032;3.712;2023-02-15T07:52:17;4.1;88
74458;SHT31;62896;51.032;3.712;2023-02-15T07:55:37;4.1;88
74458;SHT31;62896;51.032;3.712;2023-02-15T07:58:57;4.1;88
74458;SHT31;62896;51.032;3.712;2023-02-15T08:02:17;4.1;88
74458;SHT31;62896;51.032;3.712;2023-02-15T08:05:37;4.1;88
74458;SHT31;62896;51.032;3.712;2023-02-15T08:08:57;4.1;88
74458;SHT31;62896;51.032;3.712;2023-02-15T08:12:17;4.3;88
74458;SHT31;62896;51.032;3.712;2023-02-15T08:15:37;4.3;88
74458;SHT31;62896;51.032;3.712;2023-02-15T08:18:58;4.3;88
74458;SHT31;62896;51.032;3.712;2023-02-15T08:22:17;4.6;88
74458;SHT31;62896;51.032;3.712;2023-02-15T08:25:37;4.6;88
74458;SHT31;62896;51.032;3.712;2023-02-15T08:28:57;4.6;88
74458;SHT31;62896;51.032;3.712;2023-02-15T08:32:17;5;86
74458;SHT31;62896;51.032;3.712;2023-02-15T08:35:37;5;86
74458;SHT31;62896;51.032;3.712;2023-02-15T08:38:57;5;86
74458;SHT31;62896;51.032;3.712;2023-02-15T08:42:17;5.4;85
74458;SHT31;62896;51.032;3.712;2023-02-15T08:45:37;5.4;85
74458;SHT31;62896;51.032;3.712;2023-02-15T08:48:57;5.4;85
74458;SHT31;62896;51.032;3.712;2023-02-15T08:52:17;5.7;83
74458;SHT31;62896;51.032;3.712;2023-02-15T08:55:37;5.7;83
74458;SHT31;62896;51.032;3.712;2023-02-15T08:58:57;5.7;83
74458;SHT31;62896;51.032;3.712;2023-02-15T09:02:17;6.1;82
74458;SHT31;62896;51.032;3.712;2023-02-15T09:05:37;6.1;82
74458;SHT31;62896;51.032;3.712;2023-02-15T09:08:57;6.1;82
74458;SHT31;62896;51.032;3.712;2023-02-15T09:12:17;6.5;80
74458;SHT31;62896;51.032;3.712;2023-02-15T09:15:37;6.5;80
74458;SHT31;62896;51.032;3.712;2023-02-15T09:18:57;6.5;80
74458;SHT31;62896;51.032;3.712;2023-02-15T09:22:17;6.6;80
74458;SHT31;62896;51.032;3.712;2023-02-15T09:25:37;6.6;80
74458;SHT31;62896;51.032;3.712;2023-02-15T09:28:58;6.6;80
74458;SHT31;62896;51.032;3.712;2023-02-15T09:32:17;6.8;79
74458;SHT31;62896;51.032;3.712;2023-02-15T09:35:37;6.8;79
74458;SHT31;62896;51.032;3.712;2023-02-15T09:38:58;6.8;79
74458;SHT31;62896;51.032;3.712;2023-02-15T09:43:24;7.1;78
74458;SHT31;62896;51.032;3.712;2023-02-15T09:45:42;7.1;78
74458;SHT31;62896;51.032;3.712;2023-02-15T09:48:58;7.1;78
74458;SHT31;62896;51.032;3.712;2023-02-15T09:52:21;7.4;77
74458;SHT31;62896;51.032;3.712;2023-02-15T09:55:40;7.4;77
74458;SHT31;62896;51.032;3.712;2023-02-15T09:58:59;7.4;77
74458;SHT31;62896;51.032;3.712;2023-02-15T10:02:21;7.7;76
74458;SHT31;62896;51.032;3.712;2023-02-15T10:05:39;7.7;76
74458;SHT31;62896;51.032;3.712;2023-02-15T10:09:01;7.7;76
74458;SHT31;62896;51.032;3.712;2023-02-15T10:12:21;8;75
74458;SHT31;62896;51.032;3.712;2023-02-15T10:15:41;8;75
74458;SHT31;62896;51.032;3.712;2023-02-15T10:18:59;8;75
74458;SHT31;62896;51.032;3.712;2023-02-15T10:22:20;8.3;74
74458;SHT31;62896;51.032;3.712;2023-02-15T10:25:40;8.3;74
74458;SHT31;62896;51.032;3.712;2023-02-15T10:28:59;8.3;74
74458;SHT31;62896;51.032;3.712;2023-02-15T10:32:20;8.7;73
74458;SHT31;62896;51.032;3.712;2023-02-15T10:35:40;8.7;73
74458;SHT31;62896;51.032;3.712;2023-02-15T10:38:58;8.7;73
74458;SHT31;62896;51.032;3.712;2023-02-15T10:42:19;8.8;72
74458;SHT31;62896;51.032;3.712;2023-02-15T10:45:39;8.8;72
74458;SHT31;62896;51.032;3.712;2023-02-15T10:49:01;8.8;72
74458;SHT31;62896;51.032;3.712;2023-02-15T10:52:21;9;72
74458;SHT31;62896;51.032;3.712;2023-02-15T10:55:40;9;72
74458;SHT31;62896;51.032;3.712;2023-02-15T10:59:02;9;72
74458;SHT31;62896;51.032;3.712;2023-02-15T11:02:19;9.4;71
74458;SHT31;62896;51.032;3.712;2023-02-15T11:05:39;9.4;71
74458;SHT31;62896;51.032;3.712;2023-02-15T11:08:59;9.4;71
74458;SHT31;62896;51.032;3.712;2023-02-15T11:12:18;9.6;70
74458;SHT31;62896;51.032;3.712;2023-02-15T11:15:39;9.6;70
74458;SHT31;62896;51.032;3.712;2023-02-15T11:18:58;9.6;70
74458;SHT31;62896;51.032;3.712;2023-02-15T11:22:17;10;69
74458;SHT31;62896;51.032;3.712;2023-02-15T11:25:37;10;69
74458;SHT31;62896;51.032;3.712;2023-02-15T11:28:58;10;69
74458;SHT31;62896;51.032;3.712;2023-02-15T11:32:18;10.2;68
74458;SHT31;62896;51.032;3.712;2023-02-15T11:35:40;10.2;68
74458;SHT31;62896;51.032;3.712;2023-02-15T11:38:58;10.2;68
74458;SHT31;62896;51.032;3.712;2023-02-15T11:42:18;10.7;67
74458;SHT31;62896;51.032;3.712;2023-02-15T11:45:37;10.7;67
74458;SHT31;62896;51.032;3.712;2023-02-15T11:48:57;10.7;67
74458;SHT31;62896;51.032;3.712;2023-02-15T11:52:17;11;67
74458;SHT31;62896;51.032;3.712;2023-02-15T11:55:37;11;67
74458;SHT31;62896;51.032;3.712;2023-02-15T11:58:58;11;67
74458;SHT31;62896;51.032;3.712;2023-02-15T12:02:19;12.3;62
74458;SHT31;62896;51.032;3.712;2023-02-15T12:05:37;12.3;62
74458;SHT31;62896;51.032;3.712;2023-02-15T12:09:00;12.3;62
74458;SHT31;62896;51.032;3.712;2023-02-15T12:12:21;13.1;58
74458;SHT31;62896;51.032;3.712;2023-02-15T12:15:37;13.1;58
74458;SHT31;62896;51.032;3.712;2023-02-15T12:18:58;13.1;58
74458;SHT31;62896;51.032;3.712;2023-02-15T12:22:19;13;59
74458;SHT31;62896;51.032;3.712;2023-02-15T12:25:39;13;59
74458;SHT31;62896;51.032;3.712;2023-02-15T12:28:58;13;59
74458;SHT31;62896;51.032;3.712;2023-02-15T12:32:18;13;59
74458;SHT31;62896;51.032;3.712;2023-02-15T12:35:37;13;59
74458;SHT31;62896;51.032;3.712;2023-02-15T12:39:09;13;59
74458;SHT31;62896;51.032;3.712;2023-02-15T12:42:17;13;59
74458;SHT31;62896;51.032;3.712;2023-02-15T12:45:37;13;59
74458;SHT31;62896;51.032;3.712;2023-02-15T12:49:05;13;59
74458;SHT31;62896;51.032;3.712;2023-02-15T12:52:23;13.1;59
74458;SHT31;62896;51.032;3.712;2023-02-15T12:55:37;13.1;59
74458;SHT31;62896;51.032;3.712;2023-02-15T12:59:04;13.1;59
74458;SHT31;62896;51.032;3.712;2023-02-15T13:02:20;13.9;56
74458;SHT31;62896;51.032;3.712;2023-02-15T13:05:38;13.9;56
74458;SHT31;62896;51.032;3.712;2023-02-15T13:08:58;13.9;56
74458;SHT31;62896;51.032;3.712;2023-02-15T13:12:18;14.3;55
74458;SHT31;62896;51.032;3.712;2023-02-15T13:15:38;14.3;55
74458;SHT31;62896;51.032;3.712;2023-02-15T13:18:57;14.3;55
74458;SHT31;62896;51.032;3.712;2023-02-15T13:22:18;14.9;54
74458;SHT31;62896;51.032;3.712;2023-02-15T13:25:39;14.9;54
74458;SHT31;62896;51.032;3.712;2023-02-15T13:28:58;14.9;54
74458;SHT31;62896;51.032;3.712;2023-02-15T13:32:22;15.5;53
74458;SHT31;62896;51.032;3.712;2023-02-15T13:35:39;15.5;53
74458;SHT31;62896;51.032;3.712;2023-02-15T13:39:00;15.5;53
74458;SHT31;62896;51.032;3.712;2023-02-15T13:42:18;16.1;51
74458;SHT31;62896;51.032;3.712;2023-02-15T13:45:39;16.1;51
74458;SHT31;62896;51.032;3.712;2023-02-15T13:49:00;16.1;51
74458;SHT31;62896;51.032;3.712;2023-02-15T13:52:18;16.4;49
74458;SHT31;62896;51.032;3.712;2023-02-15T13:55:38;16.4;49
74458;SHT31;62896;51.032;3.712;2023-02-15T13:59:01;16.4;49
74458;SHT31;62896;51.032;3.712;2023-02-15T14:02:25;16.3;49
74458;SHT31;62896;51.032;3.712;2023-02-15T14:05:41;16.3;49
74458;SHT31;62896;51.032;3.712;2023-02-15T14:09:01;16.3;49
74458;SHT31;62896;51.032;3.712;2023-02-15T14:12:22;16.2;49
74458;SHT31;62896;51.032;3.712;2023-02-15T14:15:38;16.2;49
74458;SHT31;62896;51.032;3.712;2023-02-15T14:18:59;16.2;49
74458;SHT31;62896;51.032;3.712;2023-02-15T14:22:18;16.5;48
74458;SHT31;62896;51.032;3.712;2023-02-15T14:25:38;16.5;48
74458;SHT31;62896;51.032;3.712;2023-02-15T14:28:59;16.5;48
74458;SHT31;62896;51.032;3.712;2023-02-15T14:32:19;16.4;49
74458;SHT31;62896;51.032;3.712;2023-02-15T14:35:37;16.4;49
74458;SHT31;62896;51.032;3.712;2023-02-15T14:39:01;16.4;49
74458;SHT31;62896;51.032;3.712;2023-02-15T14:42:18;16.3;50
74458;SHT31;62896;51.032;3.712;2023-02-15T14:45:39;16.3;50
74458;SHT31;62896;51.032;3.712;2023-02-15T14:48:58;16.3;50
74458;SHT31;62896;51.032;3.712;2023-02-15T14:52:17;15.6;52
74458;SHT31;62896;51.032;3.712;2023-02-15T14:55:37;15.6;52
74458;SHT31;62896;51.032;3.712;2023-02-15T14:58:59;15.6;52
74458;SHT31;62896;51.032;3.712;2023-02-15T15:02:18;14.7;54
74458;SHT31;62896;51.032;3.712;2023-02-15T15:05:46;14.7;54
74458;SHT31;62896;51.032;3.712;2023-02-15T15:08:59;14.7;54
74458;SHT31;62896;51.032;3.712;2023-02-15T15:12:36;13.5;58
74458;SHT31;62896;51.032;3.712;2023-02-15T15:15:44;13.5;58
74458;SHT31;62896;51.032;3.712;2023-02-15T15:18:58;13.5;58
74458;SHT31;62896;51.032;3.712;2023-02-15T15:22:18;12.8;60
74458;SHT31;62896;51.032;3.712;2023-02-15T15:25:41;12.8;60
74458;SHT31;62896;51.032;3.712;2023-02-15T15:28:58;12.8;60
74458;SHT31;62896;51.032;3.712;2023-02-15T15:32:19;12.5;61
74458;SHT31;62896;51.032;3.712;2023-02-15T15:35:43;12.5;61
74458;SHT31;62896;51.032;3.712;2023-02-15T15:39:00;12.5;61
74458;SHT31;62896;51.032;3.712;2023-02-15T15:42:20;12.3;63
74458;SHT31;62896;51.032;3.712;2023-02-15T15:45:42;12.3;63
74458;SHT31;62896;51.032;3.712;2023-02-15T15:48:59;12.3;63
74458;SHT31;62896;51.032;3.712;2023-02-15T15:52:18;12.1;64
74458;SHT31;62896;51.032;3.712;2023-02-15T15:55:37;12.1;64
74458;SHT31;62896;51.032;3.712;2023-02-15T15:58:58;12.1;64
74458;SHT31;62896;51.032;3.712;2023-02-15T16:02:17;12;64
74458;SHT31;62896;51.032;3.712;2023-02-15T16:05:38;12;64
74458;SHT31;62896;51.032;3.712;2023-02-15T16:09:08;12;64
74458;SHT31;62896;51.032;3.712;2023-02-15T16:12:17;11.8;65
74458;SHT31;62896;51.032;3.712;2023-02-15T16:15:42;11.8;65
74458;SHT31;62896;51.032;3.712;2023-02-15T16:18:57;11.8;65
74458;SHT31;62896;51.032;3.712;2023-02-15T16:22:18;11.6;66
74458;SHT31;62896;51.032;3.712;2023-02-15T16:25:39;11.6;66
74458;SHT31;62896;51.032;3.712;2023-02-15T16:28:58;11.6;66
74458;SHT31;62896;51.032;3.712;2023-02-15T16:32:18;11.5;66
74458;SHT31;62896;51.032;3.712;2023-02-15T16:35:38;11.5;66
74458;SHT31;62896;51.032;3.712;2023-02-15T16:39:29;11.5;66
74458;SHT31;62896;51.032;3.712;2023-02-15T16:42:18;11.2;67
74458;SHT31;62896;51.032;3.712;2023-02-15T16:45:37;11.2;67
74458;SHT31;62896;51.032;3.712;2023-02-15T16:48:58;11.2;67
74458;SHT31;62896;51.032;3.712;2023-02-15T16:52:19;11.1;68
74458;SHT31;62896;51.032;3.712;2023-02-15T16:55:38;11.1;68
74458;SHT31;62896;51.032;3.712;2023-02-15T16:58:58;11.1;68
74458;SHT31;62896;51.032;3.712;2023-02-15T17:02:18;10.9;68
74458;SHT31;62896;51.032;3.712;2023-02-15T17:05:40;10.9;68
74458;SHT31;62896;51.032;3.712;2023-02-15T17:09:02;10.9;68
74458;SHT31;62896;51.032;3.712;2023-02-15T17:12:51;10.6;69
74458;SHT31;62896;51.032;3.712;2023-02-15T17:15:38;10.6;69
74458;SHT31;62896;51.032;3.712;2023-02-15T17:18:57;10.6;69
74458;SHT31;62896;51.032;3.712;2023-02-15T17:22:18;10.3;70
74458;SHT31;62896;51.032;3.712;2023-02-15T17:25:38;10.3;70
74458;SHT31;62896;51.032;3.712;2023-02-15T17:28:59;10.3;70
74458;SHT31;62896;51.032;3.712;2023-02-15T17:32:18;10.2;71
74458;SHT31;62896;51.032;3.712;2023-02-15T17:35:37;10.2;71
74458;SHT31;62896;51.032;3.712;2023-02-15T17:39:00;10.2;71
74458;SHT31;62896;51.032;3.712;2023-02-15T17:42:17;10.2;70
74458;SHT31;62896;51.032;3.712;2023-02-15T17:45:39;10.2;70
74458;SHT31;62896;51.032;3.712;2023-02-15T17:48:57;10.2;70
74458;SHT31;62896;51.032;3.712;2023-02-15T17:52:17;10.1;70
74458;SHT31;62896;51.032;3.712;2023-02-15T17:55:37;10.1;70
74458;SHT31;62896;51.032;3.712;2023-02-15T17:58:57;10.1;70
74458;SHT31;62896;51.032;3.712;2023-02-15T18:02:17;9.9;71
74458;SHT31;62896;51.032;3.712;2023-02-15T18:05:37;9.9;71
74458;SHT31;62896;51.032;3.712;2023-02-15T18:08:57;9.9;71
74458;SHT31;62896;51.032;3.712;2023-02-15T18:12:19;9.7;72
74458;SHT31;62896;51.032;3.712;2023-02-15T18:15:37;9.7;72
74458;SHT31;62896;51.032;3.712;2023-02-15T18:18:57;9.7;72
74458;SHT31;62896;51.032;3.712;2023-02-15T18:22:17;9.6;73
74458;SHT31;62896;51.032;3.712;2023-02-15T18:25:37;9.6;73
74458;SHT31;62896;51.032;3.712;2023-02-15T18:28:57;9.6;73
74458;SHT31;62896;51.032;3.712;2023-02-15T18:32:20;9.5;74
74458;SHT31;62896;51.032;3.712;2023-02-15T18:35:37;9.5;74
74458;SHT31;62896;51.032;3.712;2023-02-15T18:38:58;9.5;74
74458;SHT31;62896;51.032;3.712;2023-02-15T18:42:18;9.4;75
74458;SHT31;62896;51.032;3.712;2023-02-15T18:45:37;9.4;75
74458;SHT31;62896;51.032;3.712;2023-02-15T18:48:57;9.4;75
74458;SHT31;62896;51.032;3.712;2023-02-15T18:52:19;9.3;77
74458;SHT31;62896;51.032;3.712;2023-02-15T18:55:37;9.3;77
74458;SHT31;62896;51.032;3.712;2023-02-15T18:58:57;9.3;77
74458;SHT31;62896;51.032;3.712;2023-02-15T19:02:18;9.1;78
74458;SHT31;62896;51.032;3.712;2023-02-15T19:05:39;9.1;78
74458;SHT31;62896;51.032;3.712;2023-02-15T19:08:57;9.1;78
74458;SHT31;62896;51.032;3.712;2023-02-15T19:12:18;8.9;78
74458;SHT31;62896;51.032;3.712;2023-02-15T19:15:38;8.9;78
74458;SHT31;62896;51.032;3.712;2023-02-15T19:18:58;8.9;78
74458;SHT31;62896;51.032;3.712;2023-02-15T19:22:18;8.8;79
74458;SHT31;62896;51.032;3.712;2023-02-15T19:25:38;8.8;79
74458;SHT31;62896;51.032;3.712;2023-02-15T19:28:58;8.8;79
74458;SHT31;62896;51.032;3.712;2023-02-15T19:32:18;8.6;80
74458;SHT31;62896;51.032;3.712;2023-02-15T19:35:38;8.6;80
74458;SHT31;62896;51.032;3.712;2023-02-15T19:38:58;8.6;80
74458;SHT31;62896;51.032;3.712;2023-02-15T19:42:18;8.5;80
74458;SHT31;62896;51.032;3.712;2023-02-15T19:45:38;8.5;80
74458;SHT31;62896;51.032;3.712;2023-02-15T19:48:58;8.5;80
74458;SHT31;62896;51.032;3.712;2023-02-15T19:52:18;8.3;81
74458;SHT31;62896;51.032;3.712;2023-02-15T19:55:38;8.3;81
74458;SHT31;62896;51.032;3.712;2023-02-15T19:58:58;8.3;81
74458;SHT31;62896;51.032;3.712;2023-02-15T20:02:18;8.2;81
74458;SHT31;62896;51.032;3.712;2023-02-15T20:05:38;8.2;81
74458;SHT31;62896;51.032;3.712;2023-02-15T20:08:58;8.2;81
74458;SHT31;62896;51.032;3.712;2023-02-15T20:12:19;8.1;81
74458;SHT31;62896;51.032;3.712;2023-02-15T20:15:38;8.1;81
74458;SHT31;62896;51.032;3.712;2023-02-15T20:18:58;8.1;81
74458;SHT31;62896;51.032;3.712;2023-02-15T20:22:20;8;82
74458;SHT31;62896;51.032;3.712;2023-02-15T20:25:38;8;82
74458;SHT31;62896;51.032;3.712;2023-02-15T20:28:58;8;82
74458;SHT31;62896;51.032;3.712;2023-02-15T20:32:18;7.9;82
74458;SHT31;62896;51.032;3.712;2023-02-15T20:35:38;7.9;82
74458;SHT31;62896;51.032;3.712;2023-02-15T20:38:58;7.9;82
74458;SHT31;62896;51.032;3.712;2023-02-15T20:42:18;7.8;82
74458;SHT31;62896;51.032;3.712;2023-02-15T20:45:38;7.8;82
74458;SHT31;62896;51.032;3.712;2023-02-15T20:48:58;7.8;82
74458;SHT31;62896;51.032;3.712;2023-02-15T20:52:18;7.7;82
74458;SHT31;62896;51.032;3.712;2023-02-15T20:55:38;7.7;82
74458;SHT31;62896;51.032;3.712;2023-02-15T20:58:58;7.7;82
74458;SHT31;62896;51.032;3.712;2023-02-15T21:02:18;7.6;83
74458;SHT31;62896;51.032;3.712;2023-02-15T21:05:38;7.6;83
74458;SHT31;62896;51.032;3.712;2023-02-15T21:08:58;7.6;83
74458;SHT31;62896;51.032;3.712;2023-02-15T21:12:18;7.5;83
74458;SHT31;62896;51.032;3.712;2023-02-15T21:15:38;7.5;83
74458;SHT31;62896;51.032;3.712;2023-02-15T21:18:58;7.5;83
74458;SHT31;62896;51.032;3.712;2023-02-15T21:22:18;7.4;83
74458;SHT31;62896;51.032;3.712;2023-02-15T21:25:38;7.4;83
74458;SHT31;62896;51.032;3.712;2023-02-15T21:28:58;7.4;83
74458;SHT31;62896;51.032;3.712;2023-02-15T21:32:18;7.4;83
74458;SHT31;62896;51.032;3.712;2023-02-15T21:35:38;7.4;83
74458;SHT31;62896;51.032;3.712;2023-02-15T21:38:58;7.4;83
74458;SHT31;62896;51.032;3.712;2023-02-15T21:42:18;7.3;83
74458;SHT31;62896;51.032;3.712;2023-02-15T21:45:38;7.3;83
74458;SHT31;62896;51.032;3.712;2023-02-15T21:48:58;7.3;83
74458;SHT31;62896;51.032;3.712;2023-02-15T21:52:20;7.3;82
74458;SHT31;62896;51.032;3.712;2023-02-15T21:55:38;7.3;82
74458;SHT31;62896;51.032;3.712;2023-02-15T21:58:58;7.3;82
74458;SHT31;62896;51.032;3.712;2023-02-15T22:02:23;7.3;82
74458;SHT31;62896;51.032;3.712;2023-02-15T22:05:38;7.3;82
74458;SHT31;62896;51.032;3.712;2023-02-15T22:08:58;7.3;82
74458;SHT31;62896;51.032;3.712;2023-02-15T22:12:18;7.3;81
74458;SHT31;62896;51.032;3.712;2023-02-15T22:15:38;7.3;81
74458;SHT31;62896;51.032;3.712;2023-02-15T22:18:58;7.3;81
74458;SHT31;62896;51.032;3.712;2023-02-15T22:22:18;7.2;81
74458;SHT31;62896;51.032;3.712;2023-02-15T22:25:38;7.2;81
74458;SHT31;62896;51.032;3.712;2023-02-15T22:28:58;7.2;81
74458;SHT31;62896;51.032;3.712;2023-02-15T22:32:19;7.2;81
74458;SHT31;62896;51.032;3.712;2023-02-15T22:35:38;7.2;81
74458;SHT31;62896;51.032;3.712;2023-02-15T22:38:58;7.2;81
74458;SHT31;62896;51.032;3.712;2023-02-15T22:42:19;7.1;80
74458;SHT31;62896;51.032;3.712;2023-02-15T22:45:38;7.1;80
74458;SHT31;62896;51.032;3.712;2023-02-15T22:48:58;7.1;80
74458;SHT31;62896;51.032;3.712;2023-02-15T22:52:18;7.2;80
74458;SHT31;62896;51.032;3.712;2023-02-15T22:55:38;7.2;80